createdAt,value
2018-01-31T01:52:20.701Z,101342
2018-01-31T01:54:37.793Z,101340
2018-01-31T01:57:06.793Z,101329
2018-01-31T01:59:35.752Z,101329
2018-01-31T02:02:03.989Z,101323
2018-01-31T02:04:32.193Z,101316
2018-01-31T02:07:01.104Z,101317
2018-01-31T02:09:29.285Z,101310
2018-01-31T02:11:58.124Z,101296
2018-01-31T02:14:26.329Z,101293
2018-01-31T02:16:54.541Z,101302
2018-01-31T02:19:23.936Z,101289
2018-01-31T02:21:52.907Z,101291
2018-01-31T02:24:21.106Z,101280
2018-01-31T02:26:50.100Z,101275
2018-01-31T02:29:19.060Z,101267
2018-01-31T02:31:47.342Z,101260
2018-01-31T02:34:16.069Z,101266
2018-01-31T02:36:44.279Z,101256
2018-01-31T02:42:18.804Z,101250
2018-01-31T02:44:47.020Z,101246
2018-01-31T02:47:15.292Z,101246
2018-01-31T02:49:43.512Z,101234
2018-01-31T02:52:11.721Z,101230
2018-01-31T02:54:39.941Z,101223
2018-01-31T02:57:08.158Z,101213
2018-01-31T02:59:36.360Z,101218
2018-01-31T03:02:04.539Z,101206
2018-01-31T03:04:32.980Z,101204
2018-01-31T03:07:01.199Z,101187
2018-01-31T03:09:31.036Z,101182
2018-01-31T03:11:59.752Z,101181
2018-01-31T03:14:27.960Z,101184
2018-01-31T03:16:56.167Z,101183
2018-01-31T03:19:24.365Z,101187
2018-01-31T03:21:52.568Z,101193
2018-01-31T03:24:20.857Z,101187
2018-01-31T03:26:49.044Z,101182
2018-01-31T03:29:18.019Z,101178
2018-01-31T03:31:46.376Z,101172
2018-01-31T03:34:14.576Z,101164
2018-01-31T03:36:42.756Z,101158
2018-01-31T03:39:11.717Z,101167
2018-01-31T03:41:39.926Z,101138
2018-01-31T03:44:08.881Z,101147
2018-01-31T03:46:37.060Z,101142
2018-01-31T03:49:05.281Z,101138
2018-01-31T03:51:33.460Z,101128
2018-01-31T03:54:01.662Z,101127
2018-01-31T03:56:29.968Z,101121
2018-01-31T03:58:58.164Z,101109
2018-01-31T04:01:27.115Z,101101
2018-01-31T04:03:55.320Z,101102
2018-01-31T04:06:24.272Z,101094
2018-01-31T04:08:52.508Z,101101
2018-01-31T04:11:20.687Z,101086
2018-01-31T04:13:48.927Z,101094
2018-01-31T04:16:17.200Z,101096
2018-01-31T04:18:45.410Z,101099
2018-01-31T04:21:13.772Z,101103
2018-01-31T04:23:41.988Z,101105
2018-01-31T04:26:10.193Z,101089
2018-01-31T04:28:38.397Z,101087
2018-01-31T04:31:06.637Z,101071
2018-01-31T04:33:35.196Z,101065
2018-01-31T04:36:03.421Z,101050
2018-01-31T04:38:31.636Z,101040
2018-01-31T04:40:59.857Z,101037
2018-01-31T04:43:28.804Z,101018
2018-01-31T04:45:56.985Z,101025
2018-01-31T04:48:25.294Z,101022
2018-01-31T04:50:54.272Z,101016
2018-01-31T04:53:22.464Z,100997
2018-01-31T04:55:51.429Z,101005
2018-01-31T04:58:19.639Z,100986
2018-01-31T05:00:48.584Z,100989
2018-01-31T05:03:16.790Z,100985
2018-01-31T05:05:45.868Z,100981
2018-01-31T05:08:14.072Z,100982
2018-01-31T05:10:43.068Z,100973
2018-01-31T05:13:11.274Z,100956
2018-01-31T05:15:39.475Z,100954
2018-01-31T05:18:07.891Z,100947
2018-01-31T05:20:36.077Z,100936
2018-01-31T05:23:04.260Z,100926
2018-01-31T05:25:32.464Z,100911
2018-01-31T05:28:01.253Z,100892
2018-01-31T05:30:29.557Z,100887
2018-01-31T05:32:57.740Z,100885
2018-01-31T05:35:26.687Z,100884
2018-01-31T05:37:54.936Z,100865
2018-01-31T05:40:24.336Z,100869
2018-01-31T05:42:52.596Z,100858
2018-01-31T05:45:20.853Z,100846
2018-01-31T05:47:49.796Z,100839
2018-01-31T05:53:50.307Z,100850
2018-01-31T05:56:18.552Z,100847
2018-01-31T05:58:46.763Z,100829
2018-01-31T06:01:15.018Z,100833
2018-01-31T06:03:44.020Z,100829
2018-01-31T06:06:12.987Z,100822
2018-01-31T06:08:41.385Z,100807
2018-01-31T06:11:10.360Z,100801
2018-01-31T06:13:38.545Z,100802
2018-01-31T06:16:07.553Z,100799
2018-01-31T06:18:35.805Z,100793
2018-01-31T06:21:04.757Z,100780
2018-01-31T06:23:32.940Z,100770
2018-01-31T06:26:01.159Z,100775
2018-01-31T06:28:30.265Z,100767
2018-01-31T06:30:58.474Z,100766
2018-01-31T06:33:26.696Z,100762
2018-01-31T06:35:55.676Z,100755
2018-01-31T06:38:23.923Z,100755
2018-01-31T06:40:52.128Z,100743
2018-01-31T06:43:21.076Z,100732
2018-01-31T06:45:49.299Z,100737
2018-01-31T06:48:18.306Z,100725
2018-01-31T06:50:46.521Z,100714
2018-01-31T06:53:14.739Z,100725
2018-01-31T06:55:43.821Z,100719
2018-01-31T06:58:12.097Z,100734
2018-01-31T07:00:40.285Z,100717
2018-01-31T07:03:09.270Z,100712
2018-01-31T07:05:38.243Z,100702
2018-01-31T07:08:06.813Z,100706
2018-01-31T07:10:35.015Z,100699
2018-01-31T07:13:04.007Z,100690
2018-01-31T07:15:32.277Z,100678
2018-01-31T07:18:00.528Z,100668
2018-01-31T07:20:29.536Z,100663
2018-01-31T07:22:57.727Z,100655
2018-01-31T07:25:26.697Z,100653
2018-01-31T07:27:54.885Z,100649
2018-01-31T07:30:23.103Z,100639
2018-01-31T07:32:51.306Z,100641
2018-01-31T07:35:19.509Z,100625
2018-01-31T07:37:48.488Z,100615
2018-01-31T07:40:16.669Z,100615
2018-01-31T07:42:45.644Z,100595
2018-01-31T07:45:14.128Z,100590
2018-01-31T07:47:42.309Z,100597
2018-01-31T07:50:10.589Z,100581
2018-01-31T07:52:38.816Z,100571
2018-01-31T07:55:07.504Z,100554
2018-01-31T07:57:35.712Z,100553
2018-01-31T08:00:03.924Z,100551
2018-01-31T08:02:32.142Z,100535
2018-01-31T08:05:00.336Z,100539
2018-01-31T08:07:28.536Z,100527
2018-01-31T08:09:56.748Z,100538
2018-01-31T08:12:25.348Z,100529
2018-01-31T08:14:53.648Z,100514
2018-01-31T08:17:21.832Z,100524
2018-01-31T08:19:50.835Z,100513
2018-01-31T08:22:19.076Z,100503
2018-01-31T08:24:47.380Z,100506
2018-01-31T08:27:16.392Z,100505
2018-01-31T08:29:44.618Z,100492
2018-01-31T08:32:12.894Z,100489
2018-01-31T08:34:41.146Z,100473
2018-01-31T08:37:09.373Z,100473
2018-01-31T08:39:37.598Z,100461
2018-01-31T08:42:05.837Z,100458
2018-01-31T08:44:34.040Z,100458
2018-01-31T08:47:02.931Z,100456
2018-01-31T08:49:31.121Z,100449
2018-01-31T08:51:59.333Z,100443
2018-01-31T08:54:28.304Z,100433
2018-01-31T08:56:57.252Z,100424
2018-01-31T08:59:25.452Z,100423
2018-01-31T09:01:53.668Z,100415
2018-01-31T09:04:21.876Z,100415
2018-01-31T09:06:50.320Z,100397
2018-01-31T09:09:18.533Z,100396
2018-01-31T09:11:46.728Z,100385
2018-01-31T09:14:14.979Z,100372
2018-01-31T09:16:43.181Z,100365
2018-01-31T09:19:11.765Z,100369
2018-01-31T09:21:40.677Z,100355
2018-01-31T09:24:08.966Z,100358
2018-01-31T09:26:37.273Z,100349
2018-01-31T09:29:05.752Z,100347
2018-01-31T09:31:33.968Z,100341
2018-01-31T09:34:02.175Z,100345
2018-01-31T09:36:30.372Z,100342
2018-01-31T09:38:58.597Z,100342
2018-01-31T09:41:27.593Z,100335
2018-01-31T09:43:55.816Z,100331
2018-01-31T09:46:24.039Z,100323
2018-01-31T09:48:53.563Z,100335
2018-01-31T09:51:22.456Z,100305
2018-01-31T09:53:50.676Z,100313
2018-01-31T09:56:18.977Z,100317
2018-01-31T09:58:47.994Z,100295
2018-01-31T10:01:16.193Z,100288
2018-01-31T10:03:44.404Z,100288
2018-01-31T10:06:12.632Z,100280
2018-01-31T10:08:40.826Z,100288
2018-01-31T10:11:09.040Z,100272
2018-01-31T10:13:38.008Z,100279
2018-01-31T10:16:06.217Z,100266
2018-01-31T10:18:35.208Z,100269
2018-01-31T10:21:03.424Z,100269
2018-01-31T10:23:31.647Z,100265
2018-01-31T10:26:00.629Z,100252
2018-01-31T10:28:28.820Z,100238
2018-01-31T10:30:57.793Z,100243
2018-01-31T10:33:26.097Z,100232
2018-01-31T10:35:54.292Z,100227
2018-01-31T10:38:22.517Z,100215
2018-01-31T10:40:50.708Z,100214
2018-01-31T10:43:19.704Z,100203
2018-01-31T10:45:47.945Z,100188
2018-01-31T10:48:16.166Z,100188
2018-01-31T10:50:44.365Z,100186
2018-01-31T10:53:12.612Z,100169
2018-01-31T10:58:09.133Z,100158
2018-01-31T11:00:37.338Z,100144
2018-01-31T11:03:05.577Z,100151
2018-01-31T11:05:34.560Z,100137
2018-01-31T11:08:02.769Z,100135
2018-01-31T11:10:31.129Z,100134
2018-01-31T11:13:00.093Z,100124
2018-01-31T11:15:28.411Z,100112
2018-01-31T11:17:57.381Z,100107
2018-01-31T11:20:25.604Z,100109
2018-01-31T11:22:53.848Z,100117
2018-01-31T11:25:22.101Z,100103
2018-01-31T11:27:50.705Z,100078
2018-01-31T11:30:19.694Z,100088
2018-01-31T11:32:48.658Z,100067
2018-01-31T11:35:16.870Z,100057
2018-01-31T11:37:45.073Z,100053
2018-01-31T11:40:13.313Z,100053
2018-01-31T11:42:42.305Z,100050
2018-01-31T11:45:11.308Z,100046
2018-01-31T11:47:39.492Z,100033
2018-01-31T11:50:07.861Z,100031
2018-01-31T11:52:36.073Z,100016
2018-01-31T11:55:04.294Z,100009
2018-01-31T11:57:33.270Z,100006
2018-01-31T12:00:01.488Z,99998
2018-01-31T12:02:29.748Z,100005
2018-01-31T12:04:58.321Z,99987
2018-01-31T12:07:26.552Z,99969
2018-01-31T12:09:54.738Z,99986
2018-01-31T12:12:40.920Z,99958
2018-01-31T12:15:23.252Z,99953
2018-01-31T12:17:52.257Z,99947
2018-01-31T12:20:39.285Z,99937
2018-01-31T12:23:25.548Z,99943
2018-01-31T12:26:11.866Z,99934
2018-01-31T12:32:15.693Z,99912
2018-01-31T12:35:02.653Z,99904
2018-01-31T12:37:48.945Z,99914
2018-01-31T12:40:16.475Z,99892
2018-01-31T12:42:43.936Z,99885
2018-01-31T12:45:11.397Z,99893
2018-01-31T12:47:56.576Z,99877
2018-01-31T12:53:45.096Z,99870
2018-01-31T12:59:49.949Z,99861
2018-01-31T13:06:01.437Z,99850
2018-01-31T13:08:47.576Z,99828
2018-01-31T13:11:30.607Z,99829
2018-01-31T13:14:16.704Z,99824
2018-01-31T13:17:02.875Z,99832
2018-01-31T13:19:49.768Z,99819
2018-01-31T13:22:35.994Z,99805
2018-01-31T13:28:46.870Z,99800
2018-01-31T13:31:34.044Z,99803
2018-01-31T13:34:20.144Z,99796
2018-01-31T13:37:06.321Z,99803
2018-01-31T13:39:52.428Z,99780
2018-01-31T13:42:44.385Z,99771
2018-01-31T13:45:30.593Z,99761
2018-01-31T13:48:17.612Z,99766
2018-01-31T13:51:04.602Z,99755
2018-01-31T13:53:50.842Z,99753
2018-01-31T13:56:37.132Z,99740
2018-01-31T13:59:23.356Z,99745
2018-01-31T14:05:19.457Z,99717
2018-01-31T14:08:06.408Z,99718
2018-01-31T14:10:52.790Z,99710
2018-01-31T14:13:38.848Z,99716
2018-01-31T14:16:25.106Z,99707
2018-01-31T14:19:11.197Z,99693
2018-01-31T14:21:57.391Z,99694
2018-01-31T14:24:43.498Z,99682
2018-01-31T14:27:29.754Z,99681
2018-01-31T14:30:17.510Z,99678
2018-01-31T14:33:03.601Z,99695
2018-01-31T14:35:49.971Z,99675
2018-01-31T14:38:18.173Z,99685
2018-01-31T14:40:45.617Z,99674
2018-01-31T14:43:13.044Z,99662
2018-01-31T14:45:40.472Z,99665
2018-01-31T14:48:07.903Z,99664
2018-01-31T14:50:35.381Z,99672
2018-01-31T14:53:02.827Z,99669
2018-01-31T14:55:30.275Z,99660
2018-01-31T14:57:57.746Z,99647
2018-01-31T15:00:25.192Z,99646
2018-01-31T15:02:52.644Z,99641
2018-01-31T15:05:20.099Z,99639
2018-01-31T15:07:47.611Z,99633
2018-01-31T15:10:15.852Z,99632
2018-01-31T15:12:43.297Z,99647
2018-01-31T15:15:10.985Z,99617
2018-01-31T15:17:38.453Z,99617
2018-01-31T15:20:06.673Z,99609
2018-01-31T15:22:34.161Z,99611
2018-01-31T15:25:01.641Z,99603
2018-01-31T15:27:29.932Z,99595
2018-01-31T15:29:57.437Z,99607
2018-01-31T15:32:24.882Z,99584
2018-01-31T15:34:52.801Z,99584
2018-01-31T15:37:21.028Z,99556
2018-01-31T15:39:48.483Z,99568
2018-01-31T15:42:15.962Z,99566
2018-01-31T15:44:43.416Z,99549
2018-01-31T15:47:10.882Z,99540
2018-01-31T15:49:38.384Z,99538
2018-01-31T15:52:05.821Z,99535
2018-01-31T15:54:34.020Z,99527
2018-01-31T15:57:01.480Z,99521
2018-01-31T15:59:28.949Z,99528
2018-01-31T16:01:56.424Z,99521
2018-01-31T16:04:23.928Z,99520
2018-01-31T16:06:51.408Z,99518
2018-01-31T16:09:18.869Z,99511
2018-01-31T16:11:46.348Z,99503
2018-01-31T16:14:13.812Z,99501
2018-01-31T16:16:41.997Z,99501
2018-01-31T16:19:28.277Z,99493
2018-01-31T16:21:56.468Z,99489
2018-01-31T16:24:24.641Z,99500
2018-01-31T16:26:53.466Z,99489
2018-01-31T16:29:40.480Z,99489
2018-01-31T16:35:16.768Z,99461
2018-01-31T16:37:44.984Z,99449
2018-01-31T16:40:13.176Z,99447
2018-01-31T16:42:41.453Z,99453
2018-01-31T16:45:09.843Z,99453
2018-01-31T16:47:38.825Z,99451
2018-01-31T16:50:07.296Z,99447
2018-01-31T16:52:35.577Z,99440
2018-01-31T16:55:03.770Z,99441
2018-01-31T16:57:32.741Z,99427
2018-01-31T17:00:01.037Z,99416
2018-01-31T17:02:29.325Z,99411
2018-01-31T17:04:57.568Z,99422
2018-01-31T17:07:25.772Z,99402
2018-01-31T17:09:54.592Z,99395
2018-01-31T17:12:22.801Z,99396
2018-01-31T17:14:51.046Z,99390
2018-01-31T17:17:19.253Z,99391
2018-01-31T17:19:48.344Z,99383
2018-01-31T17:22:16.548Z,99386
2018-01-31T17:24:44.731Z,99386
2018-01-31T17:27:12.929Z,99381
2018-01-31T17:29:41.129Z,99380
2018-01-31T17:32:09.372Z,99369
2018-01-31T17:34:37.614Z,99369
2018-01-31T17:37:05.788Z,99369
2018-01-31T17:39:34.236Z,99369
2018-01-31T17:42:02.412Z,99372
2018-01-31T17:44:30.591Z,99370
2018-01-31T17:46:58.971Z,99357
2018-01-31T17:49:27.164Z,99358
2018-01-31T17:51:55.372Z,99355
2018-01-31T17:54:23.580Z,99352
2018-01-31T17:56:51.828Z,99345
2018-01-31T17:59:20.041Z,99348
2018-01-31T18:01:49.012Z,99340
2018-01-31T18:04:17.636Z,99337
2018-01-31T18:06:45.876Z,99332
2018-01-31T18:09:14.088Z,99332
2018-01-31T18:11:42.264Z,99326
2018-01-31T18:14:10.458Z,99321
2018-01-31T18:16:38.640Z,99313
2018-01-31T18:19:06.876Z,99312
2018-01-31T18:21:35.084Z,99299
2018-01-31T18:24:03.268Z,99297
2018-01-31T18:26:31.464Z,99289
2018-01-31T18:28:59.660Z,99274
2018-01-31T18:31:28.612Z,99278
2018-01-31T18:33:56.844Z,99272
2018-01-31T18:36:25.086Z,99279
2018-01-31T18:38:54.037Z,99277
2018-01-31T18:41:22.255Z,99273
2018-01-31T18:43:51.250Z,99272
2018-01-31T18:46:20.222Z,99261
2018-01-31T18:48:48.613Z,99263
2018-01-31T18:51:17.607Z,99257
2018-01-31T18:53:46.828Z,99253
2018-01-31T18:56:16.556Z,99252
2018-01-31T18:58:44.768Z,99249
2018-01-31T19:01:12.950Z,99250
2018-01-31T19:03:41.128Z,99254
2018-01-31T19:06:09.437Z,99237
2018-01-31T19:08:37.633Z,99243
2018-01-31T19:11:05.830Z,99229
2018-01-31T19:13:34.542Z,99232
2018-01-31T19:16:03.508Z,99227
2018-01-31T19:18:32.494Z,99223
2018-01-31T19:21:00.689Z,99222
2018-01-31T19:23:29.223Z,99213
2018-01-31T19:25:57.407Z,99229
2018-01-31T19:28:25.608Z,99209
2018-01-31T19:30:53.865Z,99215
2018-01-31T19:33:22.081Z,99202
2018-01-31T19:35:51.061Z,99212
2018-01-31T19:38:19.291Z,99210
2018-01-31T19:40:47.488Z,99199
2018-01-31T19:43:15.684Z,99200
2018-01-31T19:45:43.892Z,99181
2018-01-31T19:48:12.145Z,99185
2018-01-31T19:50:41.162Z,99186
2018-01-31T19:53:09.382Z,99190
2018-01-31T19:55:37.585Z,99189
2018-01-31T19:58:06.554Z,99197
2018-01-31T20:00:34.773Z,99171
2018-01-31T20:03:02.984Z,99172
2018-01-31T20:05:31.165Z,99168
2018-01-31T20:07:59.960Z,99173
2018-01-31T20:10:28.334Z,99192
2018-01-31T20:12:56.545Z,99175
2018-01-31T20:15:25.500Z,99175
2018-01-31T20:17:53.738Z,99173
2018-01-31T20:20:21.928Z,99161
2018-01-31T20:22:50.108Z,99159
2018-01-31T20:25:18.324Z,99167
2018-01-31T20:27:46.958Z,99149
2018-01-31T20:30:15.188Z,99161
2018-01-31T20:32:44.133Z,99164
2018-01-31T20:35:12.332Z,99162
2018-01-31T20:37:40.508Z,99152
2018-01-31T20:40:08.704Z,99152
2018-01-31T20:42:36.904Z,99152
2018-01-31T20:45:05.420Z,99152
2018-01-31T20:47:33.704Z,99156
2018-01-31T20:50:01.985Z,99146
2018-01-31T20:52:30.216Z,99148
2018-01-31T20:54:58.420Z,99154
2018-01-31T20:57:26.665Z,99176
2018-01-31T20:59:54.868Z,99164
2018-01-31T21:02:23.068Z,99162
2018-01-31T21:04:52.053Z,99163
2018-01-31T21:07:20.997Z,99165
2018-01-31T21:09:49.513Z,99154
2018-01-31T21:12:17.693Z,99160
2018-01-31T21:14:46.692Z,99161
2018-01-31T21:17:14.920Z,99179
2018-01-31T21:19:43.104Z,99172
2018-01-31T21:22:11.299Z,99193
2018-01-31T21:24:39.492Z,99216
2018-01-31T21:27:08.460Z,99210
2018-01-31T21:29:36.684Z,99200
2018-01-31T21:32:04.869Z,99177
2018-01-31T21:34:33.108Z,99175
2018-01-31T21:37:01.340Z,99171
2018-01-31T21:39:29.525Z,99176
2018-01-31T21:41:57.712Z,99160
2018-01-31T21:44:26.712Z,99169
2018-01-31T21:46:55.713Z,99161
2018-01-31T21:49:23.900Z,99151
2018-01-31T21:51:52.101Z,99150
2018-01-31T21:54:20.289Z,99147
2018-01-31T21:56:48.492Z,99155
2018-01-31T21:59:17.477Z,99147
2018-01-31T22:01:45.676Z,99141
2018-01-31T22:04:14.445Z,99145
2018-01-31T22:06:43.421Z,99147
2018-01-31T22:09:11.708Z,99150
2018-01-31T22:11:39.908Z,99147
2018-01-31T22:14:08.825Z,99143
2018-01-31T22:16:37.028Z,99152
2018-01-31T22:19:05.329Z,99147
2018-01-31T22:21:34.300Z,99135
2018-01-31T22:24:02.505Z,99143
2018-01-31T22:26:30.785Z,99142
2018-01-31T22:28:58.981Z,99141
2018-01-31T22:31:27.232Z,99142
2018-01-31T22:33:55.419Z,99128
2018-01-31T22:36:23.605Z,99136
2018-01-31T22:38:51.849Z,99129
2018-01-31T22:41:20.032Z,99139
2018-01-31T22:46:22.940Z,99148
2018-01-31T22:48:51.125Z,99143
2018-01-31T22:51:19.326Z,99140
2018-01-31T22:53:47.576Z,99150
2018-01-31T22:56:15.756Z,99158
2018-01-31T22:58:43.956Z,99165
2018-01-31T23:01:12.268Z,99169
2018-01-31T23:03:40.456Z,99164
2018-01-31T23:06:08.673Z,99162
2018-01-31T23:08:36.892Z,99159
2018-01-31T23:11:05.081Z,99154
2018-01-31T23:16:32.996Z,99159
2018-01-31T23:19:01.240Z,99172
2018-01-31T23:21:29.508Z,99155
2018-01-31T23:23:57.715Z,99162
2018-01-31T23:26:25.941Z,99157
2018-01-31T23:28:54.915Z,99156
2018-01-31T23:31:23.886Z,99168
2018-01-31T23:33:52.205Z,99155
2018-01-31T23:36:20.418Z,99166
2018-01-31T23:38:48.605Z,99172
2018-01-31T23:41:16.924Z,99177
2018-01-31T23:43:45.877Z,99174
2018-01-31T23:46:14.137Z,99165
2018-01-31T23:48:42.594Z,99169
2018-01-31T23:51:10.831Z,99153
2018-01-31T23:53:39.794Z,99157
2018-01-31T23:56:08.093Z,99162
2018-01-31T23:58:36.296Z,99178
